Time;durP1;ratioP1;P1;durP2;ratioP2;P2;SDS_P1;SDS_P2;PMS_P1;PMS_P2;Temp;Humidity;BMP_temperature;BMP_pressure;BME280_temperature;BME280_humidity;BME280_pressure;Samples;Min_cycle;Max_cycle;Signal;HPM_P1;HPM_P2
2022/03/19 00:01:53;;;;;;;15.15;7.93;;;;;;;8.17;63.88;104294.59;5075156;28;20392;-83
2022/03/19 00:04:18;;;;;;;16.52;8.95;;;;;;;8.16;64.65;104291.94;5076072;28;20032;-83
2022/03/19 00:06:46;;;;;;;13.35;8.07;;;;;;;8.13;64.35;104298.00;5078363;28;20514;-83
2022/03/19 00:09:12;;;;;;;10.88;7.28;;;;;;;8.09;65.12;104292.63;5080291;28;20032;-83
2022/03/19 00:11:37;;;;;;;15.05;8.35;;;;;;;8.09;64.72;104285.59;5079394;28;20377;-83
2022/03/19 00:14:03;;;;;;;14.50;8.80;;;;;;;8.11;65.07;104291.81;5078092;28;20120;-83
2022/03/19 00:16:29;;;;;;;11.68;8.07;;;;;;;8.14;64.68;104289.25;5080506;28;20216;-84
2022/03/19 00:18:54;;;;;;;12.98;7.63;;;;;;;8.09;64.68;104290.00;5077767;28;20042;-84
2022/03/19 00:21:20;;;;;;;14.27;8.05;;;;;;;8.10;64.75;104290.00;5076929;28;20032;-83
2022/03/19 00:23:46;;;;;;;13.35;8.35;;;;;;;8.06;64.90;104290.78;5077656;28;20036;-83
2022/03/19 00:26:12;;;;;;;13.07;8.65;;;;;;;8.09;64.55;104290.88;5079891;28;20531;-83
2022/03/19 00:28:40;;;;;;;16.65;8.82;;;;;;;8.05;64.54;104298.66;5082885;28;20050;-83
2022/03/19 00:31:05;;;;;;;13.40;8.77;;;;;;;8.01;64.99;104297.69;5081973;28;20028;-83
2022/03/19 00:33:30;;;;;;;11.95;8.38;;;;;;;7.97;64.77;104290.53;5081387;28;20149;-83
2022/03/19 00:35:56;;;;;;;17.05;9.25;;;;;;;7.97;64.87;104285.28;5079244;28;20028;-83
2022/03/19 00:38:21;;;;;;;16.95;10.40;;;;;;;7.95;65.15;104280.84;5080514;28;20110;-83
2022/03/19 00:40:47;;;;;;;19.55;9.15;;;;;;;7.89;65.29;104286.84;5082441;28;20126;-83
2022/03/19 00:43:13;;;;;;;16.10;9.95;;;;;;;7.84;65.32;104289.34;5080264;28;20104;-83
2022/03/19 00:45:38;;;;;;;14.38;8.07;;;;;;;7.81;65.78;104283.09;5078466;28;20197;-83
2022/03/19 00:48:04;;;;;;;15.05;8.73;;;;;;;7.79;65.20;104285.72;5077766;28;20603;-84
2022/03/19 00:50:29;;;;;;;14.60;9.20;;;;;;;7.76;65.19;104287.38;5077375;28;20036;-83
2022/03/19 00:52:55;;;;;;;12.98;9.52;;;;;;;7.64;65.60;104278.25;5079211;28;20020;-83
2022/03/19 00:55:20;;;;;;;15.25;10.05;;;;;;;7.63;65.94;104283.50;5081736;28;20036;-83
2022/03/19 00:57:47;;;;;;;14.50;9.45;;;;;;;7.66;65.92;104286.22;5080423;28;20024;-83
2022/03/19 01:00:15;;;;;;;14.52;8.82;;;;;;;7.66;66.18;104280.97;5078825;28;20032;-84
2022/03/19 01:02:42;;;;;;;15.95;9.65;;;;;;;7.64;66.08;104285.28;5081280;28;20110;-83
2022/03/19 01:05:09;;;;;;;16.30;9.73;;;;;;;7.60;66.00;104278.13;5078695;28;20028;-83
2022/03/19 01:07:41;;;;;;;16.33;10.48;;;;;;;7.52;66.20;104277.94;5076844;28;20047;-83
2022/03/19 01:10:08;;;;;;;14.23;9.68;;;;;;;7.45;66.06;104272.44;5080792;28;20482;-83
2022/03/19 01:12:33;;;;;;;17.13;10.18;;;;;;;7.41;66.45;104271.47;5077355;28;20503;-83
2022/03/19 01:14:58;;;;;;;16.67;10.45;;;;;;;7.38;66.28;104277.56;5079360;28;20142;-83
2022/03/19 01:17:24;;;;;;;16.05;10.63;;;;;;;7.30;66.74;104262.38;5080222;28;20038;-83
2022/03/19 01:19:57;;;;;;;14.90;10.88;;;;;;;7.30;67.29;104267.66;5074208;28;20101;-83
2022/03/19 01:22:22;;;;;;;15.77;10.63;;;;;;;7.31;67.34;104269.44;5075697;28;20028;-83
2022/03/19 01:24:48;;;;;;;14.15;10.13;;;;;;;7.26;67.33;104257.88;5079468;28;20036;-83
2022/03/19 01:27:13;;;;;;;16.88;10.43;;;;;;;7.24;67.20;104259.59;5079568;28;20023;-83
2022/03/19 01:29:39;;;;;;;18.25;10.60;;;;;;;7.17;67.06;104263.78;5077889;28;20027;-84
2022/03/19 01:32:04;;;;;;;17.23;10.23;;;;;;;7.11;67.95;104267.13;5078985;28;20028;-83
2022/03/19 01:34:30;;;;;;;16.92;11.57;;;;;;;7.03;67.38;104258.09;5076617;28;20251;-83
2022/03/19 01:36:55;;;;;;;14.95;10.43;;;;;;;7.07;67.86;104267.88;5080822;28;20495;-83
2022/03/19 01:39:20;;;;;;;17.25;11.50;;;;;;;7.05;68.18;104266.06;5080730;28;20132;-83
2022/03/19 01:41:46;;;;;;;17.10;11.82;;;;;;;7.03;67.99;104263.38;5081593;28;20157;-84
2022/03/19 01:44:22;;;;;;;19.77;11.48;;;;;;;7.04;68.46;104269.50;5079895;28;20111;-83
2022/03/19 01:46:56;;;;;;;18.10;11.95;;;;;;;6.99;68.30;104271.13;5080307;28;20024;-83
2022/03/19 01:49:22;;;;;;;17.58;12.63;;;;;;;6.94;68.50;104264.84;5077898;28;20065;-83
2022/03/19 01:51:47;;;;;;;18.15;11.82;;;;;;;6.88;69.04;104258.53;5080948;28;20044;-83
2022/03/19 01:54:13;;;;;;;17.17;11.73;;;;;;;6.92;69.51;104256.03;5078873;28;20055;-83
2022/03/19 01:56:39;;;;;;;20.23;12.48;;;;;;;6.90;69.55;104251.63;5081674;28;20039;-83
2022/03/19 01:59:04;;;;;;;19.23;12.23;;;;;;;6.75;69.33;104232.72;5081046;28;20130;-84
2022/03/19 02:01:30;;;;;;;16.42;11.98;;;;;;;6.77;69.75;104244.19;5079371;28;20039;-83
2022/03/19 02:03:57;;;;;;;18.75;12.77;;;;;;;6.75;69.88;104240.59;5078649;28;20024;-83
2022/03/19 02:06:25;;;;;;;20.33;13.50;;;;;;;6.78;69.98;104250.34;5078600;28;20031;-84
2022/03/19 02:08:51;;;;;;;21.27;13.18;;;;;;;6.78;70.01;104250.34;5075473;28;20028;-83
2022/03/19 02:11:17;;;;;;;18.05;13.18;;;;;;;6.78;70.15;104240.72;5080488;28;20035;-83
2022/03/19 02:13:42;;;;;;;18.90;13.10;;;;;;;6.79;70.54;104241.59;5077493;28;20031;-83
2022/03/19 02:16:09;;;;;;;22.00;13.38;;;;;;;6.75;70.45;104232.72;5079355;28;20024;-83
2022/03/19 02:18:34;;;;;;;17.90;13.13;;;;;;;6.75;70.89;104231.81;5077872;28;20063;-83
2022/03/19 02:20:59;;;;;;;23.73;14.55;;;;;;;6.74;70.71;104237.94;5076743;28;20154;-83
2022/03/19 02:26:09;;;;;;;24.63;14.15;;;;;;;6.65;71.41;104218.41;5076997;28;20445;-83
2022/03/19 02:28:34;;;;;;;23.63;14.32;;;;;;;6.69;71.18;104216.75;5075867;28;20016;-83
2022/03/19 02:31:00;;;;;;;25.67;14.25;;;;;;;6.73;71.53;104218.66;5078872;28;20103;-83
2022/03/19 02:33:25;;;;;;;23.17;13.77;;;;;;;6.72;71.51;104214.25;5072242;28;20126;-83
2022/03/19 02:35:50;;;;;;;23.75;14.32;;;;;;;6.70;71.33;104210.66;5077636;28;20119;-83
2022/03/19 02:38:15;;;;;;;22.75;14.63;;;;;;;6.68;71.38;104206.22;5075537;28;20040;-83
2022/03/19 02:40:41;;;;;;;21.42;13.93;;;;;;;6.69;71.31;104206.25;5079351;28;20416;-83
2022/03/19 02:43:06;;;;;;;20.08;13.45;;;;;;;6.65;71.69;104202.63;5073278;28;20028;-83
2022/03/19 02:45:31;;;;;;;21.25;14.18;;;;;;;6.64;71.71;104195.59;5077213;28;20032;-83
2022/03/19 02:47:57;;;;;;;24.42;13.25;;;;;;;6.68;72.05;104206.22;5074212;28;20043;-83
2022/03/19 02:50:33;;;;;;;21.48;12.80;;;;;;;6.69;72.19;104210.63;5076606;28;20036;-83
2022/03/19 02:53:02;;;;;;;19.33;12.48;;;;;;;6.65;72.63;104197.38;5073254;28;20487;-83
2022/03/19 02:55:35;;;;;;;20.02;12.90;;;;;;;6.64;72.17;104200.84;5078832;28;20040;-83
2022/03/19 02:58:01;;;;;;;22.20;13.05;;;;;;;6.64;72.06;104198.22;5080401;28;20032;-83
2022/03/19 03:00:27;;;;;;;20.23;12.45;;;;;;;6.59;72.08;104199.81;5078018;28;20158;-83
2022/03/19 03:02:53;;;;;;;22.10;14.15;;;;;;;6.58;72.61;104200.69;5080171;28;20123;-83
2022/03/19 03:05:18;;;;;;;24.17;14.15;;;;;;;6.57;72.52;104197.97;5076956;28;20026;-83
2022/03/19 03:07:43;;;;;;;20.35;12.23;;;;;;;6.49;72.55;104195.13;5076830;28;20036;-83
2022/03/19 03:10:14;;;;;;;21.98;13.65;;;;;;;6.42;72.77;104195.78;5072819;28;20294;-83
2022/03/19 03:12:39;;;;;;;21.08;13.50;;;;;;;6.43;72.98;104205.44;5077435;28;20079;-84
2022/03/19 03:15:05;;;;;;;21.33;13.43;;;;;;;6.40;73.09;104194.84;5076439;28;20066;-83
2022/03/19 03:17:33;;;;;;;22.50;13.73;;;;;;;6.43;73.31;104199.28;5079509;28;20453;-83
2022/03/19 03:19:59;;;;;;;22.77;12.82;;;;;;;6.50;73.11;104207.44;5073382;28;20352;-84
2022/03/19 03:22:24;;;;;;;22.60;13.40;;;;;;;6.45;73.26;104195.00;5079376;28;20055;-83
2022/03/19 03:24:49;;;;;;;22.23;13.77;;;;;;;6.44;73.54;104194.09;5075880;28;20062;-83
2022/03/19 03:27:15;;;;;;;24.70;13.73;;;;;;;6.40;73.42;104189.59;5077398;28;20032;-83
2022/03/19 03:29:41;;;;;;;19.60;13.18;;;;;;;6.39;73.92;104183.44;5074216;28;20460;-83
2022/03/19 03:32:08;;;;;;;22.33;12.68;;;;;;;6.41;73.76;104195.75;5076862;28;20471;-83
2022/03/19 03:34:33;;;;;;;23.83;13.48;;;;;;;6.36;74.05;104201.75;5077599;28;20517;-83
2022/03/19 03:36:59;;;;;;;22.40;12.50;;;;;;;6.41;73.87;104198.38;5076571;28;20032;-83
2022/03/19 03:39:24;;;;;;;23.70;13.13;;;;;;;6.39;73.99;104200.97;5081436;28;20051;-83
2022/03/19 03:41:49;;;;;;;20.25;12.20;;;;;;;6.36;74.07;104192.97;5081164;28;20043;-83
2022/03/19 03:44:15;;;;;;;20.48;11.52;;;;;;;6.42;74.22;104194.88;5080624;28;20430;-83
2022/03/19 03:46:40;;;;;;;21.75;12.23;;;;;;;6.43;74.15;104194.03;5082714;28;20028;-83
2022/03/19 03:49:05;;;;;;;20.95;12.65;;;;;;;6.38;73.97;104193.91;5080686;28;20042;-83
2022/03/19 03:51:31;;;;;;;21.35;12.52;;;;;;;6.34;74.36;104189.38;5083456;28;20491;-83
2022/03/19 03:53:56;;;;;;;21.60;12.75;;;;;;;6.35;74.53;104188.56;5081416;28;20036;-82
2022/03/19 03:56:22;;;;;;;25.48;13.13;;;;;;;6.36;74.38;104193.84;5083515;28;20625;-83
2022/03/19 03:58:47;;;;;;;25.65;12.45;;;;;;;6.39;74.19;104188.72;5081600;28;20111;-84
2022/03/19 04:01:13;;;;;;;22.75;11.90;;;;;;;6.44;74.13;104194.09;5080759;28;20510;-83
2022/03/19 04:03:38;;;;;;;20.25;12.23;;;;;;;6.35;73.99;104175.44;5079479;28;20502;-83
2022/03/19 04:06:04;;;;;;;23.17;11.38;;;;;;;6.34;74.14;104185.06;5079419;28;20020;-83
2022/03/19 04:08:29;;;;;;;22.25;12.13;;;;;;;6.36;74.46;104180.72;5081512;28;20023;-83
2022/03/19 04:10:54;;;;;;;18.60;11.45;;;;;;;6.40;74.07;104186.97;5080428;28;20476;-83
2022/03/19 04:13:20;;;;;;;24.45;11.88;;;;;;;6.38;74.24;104186.91;5081297;28;20107;-83
2022/03/19 04:15:45;;;;;;;19.95;11.05;;;;;;;6.32;74.13;104175.31;5080812;28;20028;-83
2022/03/19 04:18:13;;;;;;;16.98;11.00;;;;;;;6.32;74.54;104181.47;5081064;28;20415;-83
2022/03/19 04:20:39;;;;;;;24.17;11.77;;;;;;;6.28;74.55;104183.94;5081520;28;20368;-83
2022/03/19 04:23:04;;;;;;;22.40;12.07;;;;;;;6.30;73.94;104177.91;5082835;28;20101;-82
2022/03/19 04:25:29;;;;;;;21.00;12.15;;;;;;;6.26;74.05;104169.88;5080875;28;20106;-83
2022/03/19 04:27:56;;;;;;;18.95;12.07;;;;;;;6.23;74.04;104180.28;5079611;28;20036;-83
2022/03/19 04:30:25;;;;;;;22.70;11.45;;;;;;;6.19;74.14;104175.78;5080993;28;20529;-83
2022/03/19 04:32:58;;;;;;;19.75;10.98;;;;;;;6.14;73.58;104181.78;5082384;28;20028;-83
2022/03/19 04:38:22;;;;;;;18.45;11.57;;;;;;;6.11;74.10;104170.28;5078259;28;20093;-83
2022/03/19 04:40:50;;;;;;;19.05;11.82;;;;;;;6.10;74.35;104172.00;5080739;28;20480;-84
2022/03/19 04:43:15;;;;;;;21.02;11.70;;;;;;;6.11;74.44;104165.03;5079390;28;20487;-83
2022/03/19 04:45:42;;;;;;;19.95;11.55;;;;;;;6.11;74.43;104163.31;5076253;28;20128;-83
2022/03/19 04:48:08;;;;;;;19.85;12.32;;;;;;;6.04;74.55;104153.44;5077547;28;20032;-83
2022/03/19 04:50:38;;;;;;;23.38;11.75;;;;;;;6.08;74.92;104165.81;5079443;28;20524;-83
2022/03/19 04:53:05;;;;;;;26.35;12.70;;;;;;;6.05;75.02;104152.59;5081003;28;20031;-83
2022/03/19 04:55:30;;;;;;;20.48;11.65;;;;;;;6.06;74.71;104157.03;5082459;28;20090;-83
2022/03/19 04:57:55;;;;;;;21.63;11.90;;;;;;;6.05;74.27;104152.59;5080300;28;20035;-84
2022/03/19 05:00:21;;;;;;;23.65;12.23;;;;;;;5.97;75.38;104161.97;5079008;28;20028;-83
2022/03/19 05:02:46;;;;;;;18.88;11.85;;;;;;;6.07;74.93;104173.66;5082662;28;20020;-83
2022/03/19 05:05:11;;;;;;;17.73;11.68;;;;;;;6.05;74.71;104167.44;5080640;28;20090;-83
2022/03/19 05:07:39;;;;;;;21.15;11.82;;;;;;;6.02;74.99;104167.38;5079643;28;20024;-83
2022/03/19 05:12:50;;;;;;;21.83;12.15;;;;;;;5.87;74.84;104165.09;5077553;28;20051;-83
2022/03/19 05:15:16;;;;;;;24.65;12.60;;;;;;;5.87;75.00;104160.75;5079231;28;20019;-82
2022/03/19 05:17:43;;;;;;;32.00;13.18;;;;;;;5.92;75.25;104170.53;5079982;28;20036;-82
2022/03/19 05:20:11;;;;;;;22.02;12.73;;;;;;;5.87;74.67;104178.22;5080040;28;20067;-82
2022/03/19 05:22:37;;;;;;;19.30;12.23;;;;;;;5.85;74.83;104178.16;5078685;28;20040;-83
2022/03/19 05:25:03;;;;;;;18.88;11.30;;;;;;;5.79;75.12;104172.72;5074119;28;20050;-83
2022/03/19 05:27:29;;;;;;;22.75;12.63;;;;;;;5.81;75.35;104172.75;5075573;28;20031;-83
2022/03/19 05:29:54;;;;;;;18.90;12.60;;;;;;;5.79;74.68;104177.09;5079910;28;20028;-83
2022/03/19 05:32:21;;;;;;;25.73;13.35;;;;;;;5.74;75.69;104174.31;5080349;28;20028;-83
2022/03/19 05:34:48;;;;;;;21.73;12.77;;;;;;;5.78;75.44;104175.28;5076446;28;20133;-83
2022/03/19 05:37:14;;;;;;;23.83;11.85;;;;;;;5.76;75.24;104179.59;5081148;28;20023;-83
2022/03/19 05:39:39;;;;;;;26.60;12.40;;;;;;;5.74;75.34;104178.66;5077842;28;20086;-83
2022/03/19 05:42:06;;;;;;;26.52;12.75;;;;;;;5.71;75.53;104181.19;5082224;28;20031;-83
2022/03/19 05:44:32;;;;;;;21.67;12.75;;;;;;;5.70;75.71;104185.53;5079726;28;20364;-84
2022/03/19 05:47:00;;;;;;;20.33;12.57;;;;;;;5.70;75.92;104177.66;5080231;28;20031;-83
2022/03/19 05:49:26;;;;;;;23.15;12.68;;;;;;;5.69;75.86;104182.84;5080987;28;20411;-83
2022/03/19 05:51:52;;;;;;;24.27;11.85;;;;;;;5.62;75.54;104172.16;5078458;28;20020;-83
2022/03/19 05:54:17;;;;;;;19.55;12.48;;;;;;;5.66;75.78;104178.41;5078987;28;20423;-83
2022/03/19 05:56:43;;;;;;;27.83;13.48;;;;;;;5.73;75.99;104187.38;5080161;28;20035;-82
2022/03/19 05:59:08;;;;;;;26.88;12.65;;;;;;;5.75;76.06;104181.34;5075417;28;20124;-83
2022/03/19 06:01:35;;;;;;;25.77;11.88;;;;;;;5.77;75.96;104171.75;5078929;28;20069;-83
2022/03/19 06:04:00;;;;;;;25.67;13.43;;;;;;;5.84;75.89;104186.91;5080441;28;20410;-83
2022/03/19 06:06:27;;;;;;;21.83;13.02;;;;;;;5.90;75.67;104194.06;5080095;28;20024;-83
2022/03/19 06:08:53;;;;;;;22.23;12.60;;;;;;;5.93;75.87;104182.84;5079816;28;20039;-83
2022/03/19 06:11:18;;;;;;;29.30;12.40;;;;;;;5.94;75.78;104188.13;5078595;28;20425;-82
2022/03/19 06:13:43;;;;;;;22.33;12.75;;;;;;;5.91;75.82;104187.09;5079219;28;20039;-82
2022/03/19 06:16:09;;;;;;;23.42;12.05;;;;;;;5.91;75.60;104184.47;5075082;28;20032;-83
2022/03/19 06:18:35;;;;;;;25.98;13.27;;;;;;;5.89;76.05;104187.94;5076798;28;20031;-82
2022/03/19 06:21:00;;;;;;;27.33;12.95;;;;;;;5.92;75.56;104191.53;5078696;28;20028;-82
2022/03/19 06:23:26;;;;;;;21.50;12.88;;;;;;;5.93;75.84;104191.59;5075417;28;20027;-83
2022/03/19 06:25:52;;;;;;;21.98;12.85;;;;;;;6.00;76.02;104200.56;5078938;28;20024;-83
2022/03/19 06:28:17;;;;;;;23.42;12.45;;;;;;;6.03;75.59;104188.44;5078212;28;20030;-83
2022/03/19 06:30:42;;;;;;;21.63;12.18;;;;;;;6.05;75.87;104189.34;5079978;28;20055;-83
2022/03/19 06:33:08;;;;;;;29.42;13.35;;;;;;;6.06;75.60;104191.16;5077544;28;20118;-83
2022/03/19 06:38:21;;;;;;;25.88;12.88;;;;;;;6.17;75.67;104198.50;5080014;28;20109;-83
2022/03/19 06:40:46;;;;;;;22.83;12.75;;;;;;;6.16;75.71;104187.09;5078496;28;20433;-83
2022/03/19 06:43:12;;;;;;;24.05;13.05;;;;;;;6.24;75.68;104203.09;5080027;28;20028;-83
2022/03/19 06:45:37;;;;;;;20.52;12.32;;;;;;;6.29;75.41;104197.13;5077735;28;20032;-83
2022/03/19 06:48:03;;;;;;;23.08;12.80;;;;;;;6.30;75.71;104198.03;5080521;28;20046;-83
2022/03/19 06:50:28;;;;;;;22.23;12.70;;;;;;;6.34;75.55;104199.91;5078232;28;20054;-83
2022/03/19 06:52:54;;;;;;;22.40;12.93;;;;;;;6.39;75.49;104188.72;5078288;28;20582;-83
2022/03/19 06:55:19;;;;;;;22.08;13.52;;;;;;;6.47;75.17;104194.19;5075822;28;20040;-83
2022/03/19 06:57:44;;;;;;;23.17;12.05;;;;;;;6.53;75.36;104189.13;5077437;28;20081;-83
2022/03/19 07:00:10;;;;;;;24.00;13.23;;;;;;;6.60;75.03;104192.81;5077477;28;20260;-83
2022/03/19 07:02:54;;;;;;;27.20;13.77;;;;;;;6.73;74.65;104186.22;5078996;28;20046;-83
2022/03/19 07:05:20;;;;;;;24.85;13.40;;;;;;;6.77;74.30;104186.34;5075989;28;20031;-83
2022/03/19 07:07:50;;;;;;;23.92;13.27;;;;;;;6.86;74.31;104189.25;5078997;28;20057;-83
2022/03/19 07:10:15;;;;;;;24.85;11.85;;;;;;;6.97;73.93;104186.03;5079898;28;20055;-83
2022/03/19 07:12:45;;;;;;;23.45;13.60;;;;;;;7.06;73.70;104191.53;5082021;28;20055;-83
2022/03/19 07:15:16;;;;;;;23.35;12.63;;;;;;;7.13;73.57;104196.13;5081894;28;20035;-83
2022/03/19 07:17:43;;;;;;;21.88;12.85;;;;;;;7.19;73.35;104190.16;5081178;28;20050;-83
2022/03/19 07:20:10;;;;;;;31.75;12.95;;;;;;;7.28;73.06;104198.31;5083201;28;20081;-82
2022/03/19 07:22:59;;;;;;;21.48;11.98;;;;;;;7.40;73.04;104194.25;5083452;28;20067;-83
2022/03/19 07:25:35;;;;;;;22.77;13.10;;;;;;;7.47;72.52;104186.53;5081756;28;20024;-83
2022/03/19 07:28:04;;;;;;;21.85;12.32;;;;;;;7.55;72.23;104201.66;5083674;28;20251;-83
2022/03/19 07:30:30;;;;;;;21.92;11.60;;;;;;;7.66;72.48;104192.31;5079671;28;20024;-82
2022/03/19 07:32:56;;;;;;;23.95;11.93;;;;;;;7.79;71.50;104195.28;5082642;28;20089;-83
2022/03/19 07:35:22;;;;;;;18.20;11.68;;;;;;;7.86;71.00;104189.28;5081623;28;20313;-82
2022/03/19 07:37:47;;;;;;;22.00;11.73;;;;;;;7.96;71.07;104187.75;5083552;28;20073;-82
2022/03/19 07:40:14;;;;;;;16.25;11.02;;;;;;;8.11;71.37;104191.69;5080673;28;20040;-83
2022/03/19 07:42:40;;;;;;;24.10;12.07;;;;;;;8.23;71.13;104187.53;5083360;28;20101;-83
2022/03/19 07:45:07;;;;;;;18.13;10.93;;;;;;;8.34;70.42;104188.66;5082363;28;20066;-83
2022/03/19 07:47:34;;;;;;;17.67;10.52;;;;;;;8.47;69.77;104181.97;5082521;28;20023;-83
2022/03/19 07:50:00;;;;;;;16.85;10.85;;;;;;;8.62;69.69;104177.91;5084257;28;20471;-82
2022/03/19 07:52:26;;;;;;;16.25;10.20;;;;;;;8.76;69.85;104178.19;5083895;28;20526;-82
2022/03/19 07:54:55;;;;;;;18.67;11.25;;;;;;;8.89;69.27;104176.72;5084358;28;20039;-82
2022/03/19 07:57:23;;;;;;;22.95;11.50;;;;;;;9.00;68.91;104184.84;5082887;28;20395;-81
2022/03/19 07:59:49;;;;;;;16.60;10.70;;;;;;;9.11;68.49;104176.28;5080895;28;20020;-83
2022/03/19 08:02:15;;;;;;;20.13;10.32;;;;;;;9.34;68.23;104171.44;5081633;28;20424;-82
2022/03/19 08:04:40;;;;;;;15.50;10.00;;;;;;;9.58;66.55;104173.63;5082147;28;20032;-83
2022/03/19 08:07:07;;;;;;;15.38;9.10;;;;;;;9.83;64.74;104166.09;5083613;28;20036;-83
2022/03/19 08:09:32;;;;;;;24.17;9.73;;;;;;;10.01;64.14;104166.41;5083293;28;20260;-83
2022/03/19 08:11:59;;;;;;;15.73;8.82;;;;;;;10.34;63.37;104173.97;5081540;28;20474;-83
2022/03/19 08:14:29;;;;;;;17.27;9.68;;;;;;;10.61;62.50;104165.53;5081717;28;20028;-83
2022/03/19 08:16:55;;;;;;;16.88;8.80;;;;;;;10.98;60.95;104179.22;5081882;28;20405;-83
2022/03/19 08:19:24;;;;;;;18.33;7.85;;;;;;;11.15;59.69;104175.03;5082626;28;20028;-85
2022/03/19 08:21:52;;;;;;;16.63;8.02;;;;;;;11.33;59.06;104178.72;5081517;28;20585;-83
2022/03/19 08:24:18;;;;;;;14.85;8.18;;;;;;;11.55;58.12;104178.06;5078955;28;20043;-84
2022/03/19 08:26:44;;;;;;;16.70;7.38;;;;;;;11.58;56.72;104180.75;5083217;28;20032;-83
2022/03/19 08:29:09;;;;;;;16.85;7.43;;;;;;;11.74;56.74;104187.06;5081443;28;20035;-83
2022/03/19 08:31:34;;;;;;;11.65;7.60;;;;;;;11.87;55.41;104175.72;5084110;28;20283;-83
2022/03/19 08:34:00;;;;;;;14.52;7.68;;;;;;;12.02;54.67;104172.28;5077975;28;20028;-83
2022/03/19 08:36:25;;;;;;;14.18;7.03;;;;;;;12.19;54.70;104165.34;5084613;28;20263;-83
2022/03/19 08:41:35;;;;;;;13.30;7.40;;;;;;;12.75;55.50;104178.03;5084532;28;20407;-83
2022/03/19 08:44:01;;;;;;;12.43;6.93;;;;;;;13.03;53.07;104170.16;5081494;28;20024;-83
2022/03/19 08:46:27;;;;;;;15.30;7.43;;;;;;;13.43;52.14;104168.50;5081033;28;20077;-83
2022/03/19 08:48:52;;;;;;;16.38;7.97;;;;;;;13.86;51.67;104171.16;5081498;28;20083;-82
2022/03/19 08:54:03;;;;;;;14.35;6.82;;;;;;;13.95;49.28;104159.66;5079031;28;20051;-83
2022/03/19 08:56:32;;;;;;;16.80;7.13;;;;;;;13.99;49.13;104172.94;5080232;28;20031;-83
2022/03/19 08:58:58;;;;;;;11.93;6.15;;;;;;;14.32;49.60;104162.25;5076707;28;20440;-83
2022/03/19 09:01:24;;;;;;;14.65;7.75;;;;;;;14.32;47.46;104165.78;5081118;28;20032;-84
2022/03/19 09:03:49;;;;;;;14.10;7.35;;;;;;;14.25;47.18;104164.00;5078628;28;20020;-83
2022/03/19 09:06:14;;;;;;;13.65;6.68;;;;;;;14.71;48.34;104170.09;5078247;28;20032;-83
2022/03/19 09:08:44;;;;;;;17.98;7.20;;;;;;;15.04;48.03;104166.38;5076733;28;20490;-83
2022/03/19 09:11:10;;;;;;;15.07;6.85;;;;;;;15.27;46.22;104160.03;5081891;28;20059;-83
2022/03/19 09:13:36;;;;;;;15.05;6.68;;;;;;;15.90;45.71;104159.53;5079669;28;20023;-83
2022/03/19 09:16:03;;;;;;;12.77;6.97;;;;;;;16.32;43.36;104148.44;5081352;28;20511;-83
2022/03/19 09:18:29;;;;;;;10.32;6.63;;;;;;;16.53;42.80;104157.09;5079211;28;20120;-83
2022/03/19 09:20:54;;;;;;;10.45;6.32;;;;;;;16.76;42.38;104152.38;5079834;28;20024;-83
2022/03/19 09:23:20;;;;;;;10.63;6.30;;;;;;;17.32;41.49;104149.78;5079447;28;20035;-82
2022/03/19 09:25:45;;;;;;;12.88;6.57;;;;;;;17.80;39.91;104140.06;5079117;28;20028;-83
2022/03/19 09:28:10;;;;;;;9.55;5.07;;;;;;;18.19;38.91;104140.25;5079905;28;20032;-84
2022/03/19 09:30:36;;;;;;;16.33;6.43;;;;;;;18.35;39.18;104152.41;5074459;28;20139;-83
2022/03/19 09:33:01;;;;;;;11.77;5.80;;;;;;;18.97;39.24;104146.63;5080175;28;20023;-83
2022/03/19 09:35:27;;;;;;;12.85;6.20;;;;;;;19.07;35.72;104152.66;5079729;28;20028;-84
2022/03/19 09:37:52;;;;;;;10.20;5.35;;;;;;;19.28;36.68;104146.81;5082691;28;20035;-83
2022/03/19 09:40:19;;;;;;;9.70;5.40;;;;;;;19.76;37.09;104137.56;5081528;28;20044;-84
2022/03/19 09:42:49;;;;;;;10.20;5.63;;;;;;;20.28;35.09;104133.44;5081909;28;20461;-83
2022/03/19 09:45:18;;;;;;;13.93;5.63;;;;;;;20.73;34.48;104133.94;5079530;28;20027;-82
2022/03/19 09:47:43;;;;;;;10.38;5.50;;;;;;;21.04;33.06;104127.59;5080352;28;20028;-84
2022/03/19 09:50:09;;;;;;;10.07;5.45;;;;;;;21.00;32.44;104126.81;5080423;28;20022;-84
2022/03/19 09:52:36;;;;;;;10.80;5.22;;;;;;;21.30;32.22;104119.53;5080187;28;20027;-84
2022/03/19 09:55:03;;;;;;;10.00;4.90;;;;;;;21.80;31.08;104118.78;5079526;28;20024;-84
2022/03/19 09:57:28;;;;;;;8.57;4.90;;;;;;;22.10;30.11;104116.75;5078897;28;20031;-84
2022/03/19 09:59:54;;;;;;;12.40;4.72;;;;;;;22.39;31.03;104119.31;5077180;28;20366;-84
2022/03/19 10:02:19;;;;;;;10.50;4.47;;;;;;;22.73;28.50;104123.38;5077452;28;20030;-84
2022/03/19 10:04:44;;;;;;;9.82;4.90;;;;;;;23.12;28.28;104104.72;5079682;28;20491;-84
2022/03/19 10:09:56;;;;;;;7.63;4.57;;;;;;;23.39;25.92;104107.19;5081658;28;20047;-84
2022/03/19 10:12:25;;;;;;;9.40;4.28;;;;;;;22.59;28.06;104105.03;5079864;28;20032;-85
2022/03/19 10:14:56;;;;;;;9.95;4.43;;;;;;;22.97;27.31;104082.88;5079740;28;20035;-84
2022/03/19 10:17:30;;;;;;;9.80;4.43;;;;;;;23.73;26.30;104086.84;5080587;28;20035;-84
2022/03/19 10:20:10;;;;;;;11.02;4.82;;;;;;;23.95;24.57;104079.53;5079103;28;20039;-84
2022/03/19 10:22:44;;;;;;;9.10;3.85;;;;;;;23.90;26.36;104082.44;5076439;28;20298;-84
2022/03/19 10:25:12;;;;;;;7.57;3.28;;;;;;;23.74;24.48;104070.59;5077488;28;20054;-84
2022/03/19 10:27:39;;;;;;;7.80;3.90;;;;;;;23.48;24.31;104062.72;5077200;28;20487;-84
2022/03/19 10:30:19;;;;;;;9.30;4.20;;;;;;;23.68;25.00;104049.22;5076756;28;20038;-84
2022/03/19 10:32:51;;;;;;;6.90;3.80;;;;;;;24.39;23.76;104058.59;5077359;28;20479;-84
2022/03/19 10:35:36;;;;;;;7.63;4.18;;;;;;;23.97;22.33;104055.13;5079302;28;20484;-84
2022/03/19 10:38:23;;;;;;;6.45;3.33;;;;;;;23.83;24.42;104050.38;5080691;28;20032;-84
2022/03/19 10:40:51;;;;;;;7.55;3.58;;;;;;;23.42;23.42;104040.44;5077947;28;20376;-84
2022/03/19 10:43:18;;;;;;;10.07;3.55;;;;;;;24.07;23.08;104045.69;5079570;28;20100;-85
2022/03/19 10:45:49;;;;;;;7.57;3.42;;;;;;;24.52;22.78;104039.03;5078679;28;20031;-84
2022/03/19 10:48:27;;;;;;;10.05;4.20;;;;;;;24.85;22.85;104041.91;5082137;28;20023;-84
2022/03/19 10:50:53;;;;;;;8.35;3.63;;;;;;;24.70;20.24;104032.72;5076639;28;20039;-84
2022/03/19 10:53:20;;;;;;;4.60;2.75;;;;;;;24.39;20.78;104026.13;5081137;28;20024;-84
2022/03/19 10:55:45;;;;;;;6.57;3.28;;;;;;;23.95;20.00;104022.78;5076886;28;20080;-85
2022/03/19 10:58:11;;;;;;;5.55;2.70;;;;;;;23.88;20.08;104019.50;5080324;28;20722;-85
2022/03/19 11:00:37;;;;;;;5.47;2.78;;;;;;;24.26;19.80;104027.63;5079040;28;20539;-85
2022/03/19 11:03:13;;;;;;;9.13;3.10;;;;;;;23.60;19.77;104005.47;5078649;28;20114;-85
2022/03/19 11:05:40;;;;;;;6.30;3.53;;;;;;;22.61;19.86;104007.88;5078212;28;20366;-85
2022/03/19 11:08:07;;;;;;;7.78;2.75;;;;;;;22.00;20.16;104003.06;5074843;28;20070;-85
2022/03/19 11:10:34;;;;;;;8.35;3.20;;;;;;;21.38;20.76;104000.88;5077184;28;20488;-85
2022/03/19 11:13:01;;;;;;;6.18;2.88;;;;;;;21.43;20.47;104000.72;5076126;28;20055;-85
2022/03/19 11:15:33;;;;;;;5.10;2.70;;;;;;;21.06;21.83;104004.66;5078299;28;20028;-84
2022/03/19 11:18:03;;;;;;;5.75;2.70;;;;;;;21.33;20.53;103992.09;5077540;28;20028;-85
2022/03/19 11:20:29;;;;;;;6.53;3.08;;;;;;;21.19;20.89;103986.28;5077617;28;20124;-85
2022/03/19 11:22:57;;;;;;;6.25;2.90;;;;;;;20.94;20.05;103975.47;5077479;28;20035;-85
2022/03/19 11:25:26;;;;;;;6.68;2.50;;;;;;;21.08;21.14;103984.84;5074186;28;20036;-85
2022/03/19 11:28:00;;;;;;;8.98;2.50;;;;;;;20.89;19.29;103964.91;5078107;28;20553;-86
2022/03/19 11:30:37;;;;;;;5.22;2.45;;;;;;;20.75;18.93;103968.06;5076827;28;20074;-86
2022/03/19 11:33:17;;;;;;;7.65;2.60;;;;;;;20.62;20.20;103981.03;5077741;28;20051;-85
2022/03/19 11:35:45;;;;;;;8.63;2.60;;;;;;;20.51;18.45;103960.78;5073342;28;20391;-85
2022/03/19 11:38:20;;;;;;;6.57;2.60;;;;;;;20.48;19.76;103960.91;5074893;28;20028;-85